sensor_id;sensor_type;location;lat;lon;timestamp;pressure;altitude;pressure_sealevel;temperature;humidity
54978;BME280;40873;47.522;19.106;2023-02-19T00:01:34;100393.38;;;11.83;74.06
54978;BME280;40873;47.522;19.106;2023-02-19T00:04:04;100397.97;;;11.79;73.87
54978;BME280;40873;47.522;19.106;2023-02-19T00:06:34;100395.81;;;11.86;73.49
54978;BME280;40873;47.522;19.106;2023-02-19T00:09:02;100395.44;;;11.77;72.55
54978;BME280;40873;47.522;19.106;2023-02-19T00:11:31;100407.69;;;11.78;72.55
54978;BME280;40873;47.522;19.106;2023-02-19T00:13:59;100393.63;;;11.78;72.95
54978;BME280;40873;47.522;19.106;2023-02-19T00:16:30;100395.31;;;11.79;73.28
54978;BME280;40873;47.522;19.106;2023-02-19T00:18:58;100392.63;;;11.66;73.35
54978;BME280;40873;47.522;19.106;2023-02-19T00:21:26;100394.91;;;11.58;74.45
54978;BME280;40873;47.522;19.106;2023-02-19T00:23:59;100393.09;;;11.59;74.55
54978;BME280;40873;47.522;19.106;2023-02-19T00:26:27;100381.69;;;11.58;74.12
54978;BME280;40873;47.522;19.106;2023-02-19T00:28:55;100386.25;;;11.56;74.61
54978;BME280;40873;47.522;19.106;2023-02-19T00:31:30;100369.94;;;11.49;74.73
54978;BME280;40873;47.522;19.106;2023-02-19T00:34:03;100390.41;;;11.46;75.38
54978;BME280;40873;47.522;19.106;2023-02-19T00:36:33;100379.81;;;11.46;75.37
54978;BME280;40873;47.522;19.106;2023-02-19T00:39:02;100380.03;;;11.43;75.43
54978;BME280;40873;47.522;19.106;2023-02-19T00:41:29;100389.81;;;11.55;74.38
54978;BME280;40873;47.522;19.106;2023-02-19T00:43:59;100396.44;;;11.48;74.23
54978;BME280;40873;47.522;19.106;2023-02-19T00:46:49;100391.53;;;11.56;73.79
54978;BME280;40873;47.522;19.106;2023-02-19T00:49:21;100388.22;;;11.52;73.92
54978;BME280;40873;47.522;19.106;2023-02-19T00:51:50;100390.69;;;11.41;74.91
54978;BME280;40873;47.522;19.106;2023-02-19T00:54:18;100387.59;;;11.35;74.97
54978;BME280;40873;47.522;19.106;2023-02-19T00:56:45;100392.41;;;11.28;75.38
54978;BME280;40873;47.522;19.106;2023-02-19T00:59:13;100395.34;;;11.23;75.70
54978;BME280;40873;47.522;19.106;2023-02-19T01:01:41;100401.47;;;11.24;75.59
54978;BME280;40873;47.522;19.106;2023-02-19T01:04:10;100398.19;;;11.20;75.66
54978;BME280;40873;47.522;19.106;2023-02-19T01:06:37;100399.97;;;11.20;75.85
54978;BME280;40873;47.522;19.106;2023-02-19T01:09:05;100398.81;;;11.24;75.99
54978;BME280;40873;47.522;19.106;2023-02-19T01:11:33;100395.22;;;11.25;75.80
54978;BME280;40873;47.522;19.106;2023-02-19T01:14:01;100397.03;;;11.24;75.64
54978;BME280;40873;47.522;19.106;2023-02-19T01:16:29;100392.94;;;11.33;75.53
54978;BME280;40873;47.522;19.106;2023-02-19T01:18:57;100389.66;;;11.30;75.73
54978;BME280;40873;47.522;19.106;2023-02-19T01:21:25;100391.00;;;11.22;76.16
54978;BME280;40873;47.522;19.106;2023-02-19T01:23:54;100375.25;;;11.21;76.53
54978;BME280;40873;47.522;19.106;2023-02-19T01:26:25;100385.34;;;11.29;76.13
54978;BME280;40873;47.522;19.106;2023-02-19T01:28:52;100372.78;;;11.32;76.26
54978;BME280;40873;47.522;19.106;2023-02-19T01:31:21;100375.34;;;11.34;76.00
54978;BME280;40873;47.522;19.106;2023-02-19T01:33:51;100376.19;;;11.34;75.91
54978;BME280;40873;47.522;19.106;2023-02-19T01:36:19;100378.13;;;11.45;75.44
54978;BME280;40873;47.522;19.106;2023-02-19T01:38:47;100377.00;;;11.49;75.68
54978;BME280;40873;47.522;19.106;2023-02-19T01:41:18;100374.38;;;11.49;75.35
54978;BME280;40873;47.522;19.106;2023-02-19T01:46:32;100385.34;;;11.29;76.53
54978;BME280;40873;47.522;19.106;2023-02-19T01:49:11;100397.81;;;11.27;76.60
54978;BME280;40873;47.522;19.106;2023-02-19T01:51:43;100370.44;;;11.28;76.37
54978;BME280;40873;47.522;19.106;2023-02-19T01:54:12;100367.41;;;11.34;76.23
54978;BME280;40873;47.522;19.106;2023-02-19T01:56:41;100384.38;;;11.30;76.56
54978;BME280;40873;47.522;19.106;2023-02-19T01:59:09;100383.06;;;11.22;76.69
54978;BME280;40873;47.522;19.106;2023-02-19T02:01:37;100382.41;;;11.19;77.27
54978;BME280;40873;47.522;19.106;2023-02-19T02:04:07;100376.66;;;11.12;77.44
54978;BME280;40873;47.522;19.106;2023-02-19T02:06:54;100364.97;;;11.16;76.94
54978;BME280;40873;47.522;19.106;2023-02-19T02:09:26;100364.50;;;11.10;77.78
54978;BME280;40873;47.522;19.106;2023-02-19T02:12:12;100359.59;;;11.04;77.96
54978;BME280;40873;47.522;19.106;2023-02-19T02:14:42;100354.88;;;11.09;78.22
54978;BME280;40873;47.522;19.106;2023-02-19T02:22:49;100359.06;;;11.13;79.04
54978;BME280;40873;47.522;19.106;2023-02-19T02:28:21;100332.69;;;11.25;79.01
54978;BME280;40873;47.522;19.106;2023-02-19T02:30:53;100345.25;;;11.22;78.82
54978;BME280;40873;47.522;19.106;2023-02-19T02:33:46;100357.03;;;11.31;78.90
54978;BME280;40873;47.522;19.106;2023-02-19T02:36:18;100354.13;;;11.21;79.12
54978;BME280;40873;47.522;19.106;2023-02-19T02:38:47;100350.53;;;11.22;78.92
54978;BME280;40873;47.522;19.106;2023-02-19T02:41:15;100348.28;;;11.16;79.34
54978;BME280;40873;47.522;19.106;2023-02-19T02:43:42;100355.09;;;11.20;78.30
54978;BME280;40873;47.522;19.106;2023-02-19T02:46:10;100362.59;;;11.12;78.89
54978;BME280;40873;47.522;19.106;2023-02-19T02:48:44;100356.56;;;11.24;77.90
54978;BME280;40873;47.522;19.106;2023-02-19T02:51:17;100359.69;;;11.16;78.56
54978;BME280;40873;47.522;19.106;2023-02-19T02:54:13;100362.59;;;11.26;78.04
54978;BME280;40873;47.522;19.106;2023-02-19T02:57:01;100371.19;;;11.15;78.68
54978;BME280;40873;47.522;19.106;2023-02-19T02:59:34;100372.63;;;11.07;79.96
54978;BME280;40873;47.522;19.106;2023-02-19T03:02:16;100370.94;;;11.06;80.32
54978;BME280;40873;47.522;19.106;2023-02-19T03:05:02;100370.84;;;11.07;80.60
54978;BME280;40873;47.522;19.106;2023-02-19T03:08:12;100381.94;;;10.98;81.52
54978;BME280;40873;47.522;19.106;2023-02-19T03:11:03;100377.97;;;11.19;80.99
54978;BME280;40873;47.522;19.106;2023-02-19T03:14:00;100376.28;;;11.18;80.78
54978;BME280;40873;47.522;19.106;2023-02-19T03:16:50;100373.56;;;11.06;80.97
54978;BME280;40873;47.522;19.106;2023-02-19T03:19:43;100371.78;;;11.06;81.57
54978;BME280;40873;47.522;19.106;2023-02-19T03:22:18;100371.47;;;11.11;81.53
54978;BME280;40873;47.522;19.106;2023-02-19T03:24:53;100367.53;;;11.04;81.26
54978;BME280;40873;47.522;19.106;2023-02-19T03:27:42;100375.16;;;11.08;81.27
54978;BME280;40873;47.522;19.106;2023-02-19T03:30:20;100376.38;;;11.03;81.53
54978;BME280;40873;47.522;19.106;2023-02-19T03:32:59;100393.28;;;11.00;81.84
54978;BME280;40873;47.522;19.106;2023-02-19T03:35:32;100389.59;;;11.03;81.52
54978;BME280;40873;47.522;19.106;2023-02-19T03:40:43;100376.66;;;11.12;80.96
54978;BME280;40873;47.522;19.106;2023-02-19T03:43:15;100378.19;;;11.16;80.88
54978;BME280;40873;47.522;19.106;2023-02-19T03:51:16;100393.44;;;10.97;81.60
54978;BME280;40873;47.522;19.106;2023-02-19T03:56:46;100394.75;;;10.90;81.79
54978;BME280;40873;47.522;19.106;2023-02-19T03:59:21;100392.44;;;10.85;82.41
54978;BME280;40873;47.522;19.106;2023-02-19T04:02:05;100383.94;;;10.80;82.56
54978;BME280;40873;47.522;19.106;2023-02-19T04:04:37;100381.03;;;10.85;82.49
54978;BME280;40873;47.522;19.106;2023-02-19T04:07:05;100383.84;;;10.82;82.89
54978;BME280;40873;47.522;19.106;2023-02-19T04:09:36;100374.38;;;10.78;83.19
54978;BME280;40873;47.522;19.106;2023-02-19T04:12:05;100377.13;;;10.76;83.25
54978;BME280;40873;47.522;19.106;2023-02-19T04:14:40;100381.94;;;10.84;83.51
54978;BME280;40873;47.522;19.106;2023-02-19T04:17:14;100384.78;;;10.81;83.35
54978;BME280;40873;47.522;19.106;2023-02-19T04:19:42;100381.75;;;10.73;83.61
54978;BME280;40873;47.522;19.106;2023-02-19T04:22:11;100387.41;;;10.66;84.49
54978;BME280;40873;47.522;19.106;2023-02-19T04:24:50;100386.09;;;10.74;83.59
54978;BME280;40873;47.522;19.106;2023-02-19T04:27:18;100389.84;;;10.69;83.99
54978;BME280;40873;47.522;19.106;2023-02-19T04:29:45;100386.47;;;10.67;83.70
54978;BME280;40873;47.522;19.106;2023-02-19T04:32:13;100394.00;;;10.59;84.51
54978;BME280;40873;47.522;19.106;2023-02-19T04:34:39;100387.66;;;10.62;84.03
54978;BME280;40873;47.522;19.106;2023-02-19T04:37:07;100391.72;;;10.53;84.72
54978;BME280;40873;47.522;19.106;2023-02-19T04:39:33;100381.41;;;10.49;85.17
54978;BME280;40873;47.522;19.106;2023-02-19T04:42:01;100378.41;;;10.55;84.37
54978;BME280;40873;47.522;19.106;2023-02-19T04:44:27;100383.53;;;10.58;84.56
54978;BME280;40873;47.522;19.106;2023-02-19T04:46:54;100385.09;;;10.46;84.90
54978;BME280;40873;47.522;19.106;2023-02-19T04:49:21;100375.84;;;10.39;85.18
54978;BME280;40873;47.522;19.106;2023-02-19T04:51:48;100376.59;;;10.41;84.95
54978;BME280;40873;47.522;19.106;2023-02-19T04:54:15;100379.72;;;10.48;84.47
54978;BME280;40873;47.522;19.106;2023-02-19T04:56:42;100380.94;;;10.42;84.72
54978;BME280;40873;47.522;19.106;2023-02-19T04:59:09;100375.03;;;10.53;84.05
54978;BME280;40873;47.522;19.106;2023-02-19T05:01:36;100368.16;;;10.50;84.72
54978;BME280;40873;47.522;19.106;2023-02-19T05:04:03;100360.06;;;10.53;83.78
54978;BME280;40873;47.522;19.106;2023-02-19T05:06:31;100371.81;;;10.48;83.81
54978;BME280;40873;47.522;19.106;2023-02-19T05:08:57;100368.31;;;10.47;84.10
54978;BME280;40873;47.522;19.106;2023-02-19T05:11:25;100360.16;;;10.52;83.08
54978;BME280;40873;47.522;19.106;2023-02-19T05:13:54;100359.84;;;10.56;83.11
54978;BME280;40873;47.522;19.106;2023-02-19T05:16:21;100366.91;;;10.56;83.50
54978;BME280;40873;47.522;19.106;2023-02-19T05:18:48;100375.19;;;10.50;83.41
54978;BME280;40873;47.522;19.106;2023-02-19T05:21:15;100374.19;;;10.52;83.44
54978;BME280;40873;47.522;19.106;2023-02-19T05:23:42;100369.41;;;10.59;82.97
54978;BME280;40873;47.522;19.106;2023-02-19T05:26:14;100384.84;;;10.51;83.43
54978;BME280;40873;47.522;19.106;2023-02-19T05:28:44;100377.31;;;10.59;83.00
54978;BME280;40873;47.522;19.106;2023-02-19T05:31:12;100380.97;;;10.56;82.89
54978;BME280;40873;47.522;19.106;2023-02-19T05:33:40;100386.44;;;10.53;83.43
54978;BME280;40873;47.522;19.106;2023-02-19T05:36:11;100383.13;;;10.50;83.77
54978;BME280;40873;47.522;19.106;2023-02-19T05:38:39;100382.09;;;10.52;83.64
54978;BME280;40873;47.522;19.106;2023-02-19T05:41:17;100386.06;;;10.59;83.92
54978;BME280;40873;47.522;19.106;2023-02-19T05:43:46;100370.88;;;10.63;83.67
54978;BME280;40873;47.522;19.106;2023-02-19T05:46:16;100371.34;;;10.55;84.64
54978;BME280;40873;47.522;19.106;2023-02-19T05:48:43;100365.53;;;10.50;85.18
54978;BME280;40873;47.522;19.106;2023-02-19T05:51:13;100376.34;;;10.46;86.14
54978;BME280;40873;47.522;19.106;2023-02-19T05:53:41;100365.97;;;10.42;86.84
54978;BME280;40873;47.522;19.106;2023-02-19T05:56:38;100380.38;;;10.37;87.84
54978;BME280;40873;47.522;19.106;2023-02-19T05:59:17;100370.69;;;10.37;88.45
54978;BME280;40873;47.522;19.106;2023-02-19T06:01:46;100378.75;;;10.34;89.76
54978;BME280;40873;47.522;19.106;2023-02-19T06:04:13;100389.97;;;10.38;90.21
54978;BME280;40873;47.522;19.106;2023-02-19T06:06:42;100381.88;;;10.41;90.45
54978;BME280;40873;47.522;19.106;2023-02-19T06:09:09;100397.06;;;10.37;91.38
54978;BME280;40873;47.522;19.106;2023-02-19T06:11:37;100398.47;;;10.43;91.92
54978;BME280;40873;47.522;19.106;2023-02-19T06:14:04;100406.19;;;10.46;93.11
54978;BME280;40873;47.522;19.106;2023-02-19T06:16:32;100390.81;;;10.38;94.54
54978;BME280;40873;47.522;19.106;2023-02-19T06:19:03;100388.44;;;10.34;96.83
54978;BME280;40873;47.522;19.106;2023-02-19T06:21:30;100386.94;;;10.30;98.21
54978;BME280;40873;47.522;19.106;2023-02-19T06:23:57;100368.69;;;10.41;97.94
54978;BME280;40873;47.522;19.106;2023-02-19T06:26:25;100359.44;;;10.64;96.66
54978;BME280;40873;47.522;19.106;2023-02-19T06:28:52;100349.13;;;10.45;98.11
54978;BME280;40873;47.522;19.106;2023-02-19T06:31:21;100367.53;;;10.15;100.00
54978;BME280;40873;47.522;19.106;2023-02-19T06:33:48;100366.88;;;10.27;100.00
54978;BME280;40873;47.522;19.106;2023-02-19T06:36:19;100363.50;;;10.09;100.00
54978;BME280;40873;47.522;19.106;2023-02-19T06:38:46;100355.34;;;9.98;100.00
54978;BME280;40873;47.522;19.106;2023-02-19T06:41:13;100352.31;;;10.20;100.00
54978;BME280;40873;47.522;19.106;2023-02-19T06:43:40;100352.19;;;10.07;100.00
54978;BME280;40873;47.522;19.106;2023-02-19T06:46:10;100349.28;;;10.12;100.00
54978;BME280;40873;47.522;19.106;2023-02-19T06:48:38;100350.78;;;9.86;100.00
54978;BME280;40873;47.522;19.106;2023-02-19T06:51:13;100356.25;;;9.83;100.00
54978;BME280;40873;47.522;19.106;2023-02-19T06:53:40;100361.94;;;9.75;100.00
54978;BME280;40873;47.522;19.106;2023-02-19T06:58:47;100362.78;;;9.76;100.00
54978;BME280;40873;47.522;19.106;2023-02-19T07:01:14;100360.00;;;9.63;100.00
54978;BME280;40873;47.522;19.106;2023-02-19T07:03:41;100354.81;;;9.77;100.00
54978;BME280;40873;47.522;19.106;2023-02-19T07:06:09;100366.38;;;9.59;100.00
54978;BME280;40873;47.522;19.106;2023-02-19T07:08:35;100371.13;;;9.84;100.00
54978;BME280;40873;47.522;19.106;2023-02-19T07:11:03;100377.94;;;9.56;100.00
54978;BME280;40873;47.522;19.106;2023-02-19T07:13:30;100369.34;;;9.69;100.00
54978;BME280;40873;47.522;19.106;2023-02-19T07:15:59;100380.97;;;9.80;100.00
54978;BME280;40873;47.522;19.106;2023-02-19T07:18:26;100373.25;;;9.77;100.00
54978;BME280;40873;47.522;19.106;2023-02-19T07:20:54;100373.34;;;9.60;100.00
54978;BME280;40873;47.522;19.106;2023-02-19T07:23:20;100372.47;;;9.44;100.00
54978;BME280;40873;47.522;19.106;2023-02-19T07:25:47;100364.56;;;9.59;100.00
54978;BME280;40873;47.522;19.106;2023-02-19T07:28:14;100359.66;;;9.38;100.00
54978;BME280;40873;47.522;19.106;2023-02-19T07:30:42;100359.66;;;9.22;100.00
54978;BME280;40873;47.522;19.106;2023-02-19T07:33:09;100358.91;;;9.20;100.00
54978;BME280;40873;47.522;19.106;2023-02-19T07:35:36;100358.19;;;9.16;100.00
54978;BME280;40873;47.522;19.106;2023-02-19T07:38:03;100359.03;;;9.17;100.00
54978;BME280;40873;47.522;19.106;2023-02-19T07:40:30;100346.72;;;9.17;100.00
54978;BME280;40873;47.522;19.106;2023-02-19T07:42:58;100352.84;;;9.18;100.00
54978;BME280;40873;47.522;19.106;2023-02-19T07:45:26;100340.47;;;9.20;100.00
54978;BME280;40873;47.522;19.106;2023-02-19T07:47:53;100350.81;;;9.23;100.00
54978;BME280;40873;47.522;19.106;2023-02-19T07:50:20;100343.69;;;9.41;100.00
54978;BME280;40873;47.522;19.106;2023-02-19T07:52:47;100349.72;;;9.43;100.00
54978;BME280;40873;47.522;19.106;2023-02-19T07:55:14;100358.66;;;9.40;100.00
54978;BME280;40873;47.522;19.106;2023-02-19T07:57:41;100352.88;;;9.33;100.00
54978;BME280;40873;47.522;19.106;2023-02-19T08:00:08;100362.38;;;9.20;100.00
54978;BME280;40873;47.522;19.106;2023-02-19T08:02:35;100363.56;;;9.30;100.00
54978;BME280;40873;47.522;19.106;2023-02-19T08:05:21;100378.50;;;9.30;100.00
54978;BME280;40873;47.522;19.106;2023-02-19T08:07:48;100379.97;;;9.51;100.00
54978;BME280;40873;47.522;19.106;2023-02-19T08:10:15;100376.38;;;9.52;100.00
54978;BME280;40873;47.522;19.106;2023-02-19T08:13:01;100389.47;;;9.70;100.00
54978;BME280;40873;47.522;19.106;2023-02-19T08:15:49;100376.06;;;9.58;100.00
54978;BME280;40873;47.522;19.106;2023-02-19T08:18:21;100373.50;;;9.57;100.00
54978;BME280;40873;47.522;19.106;2023-02-19T08:20:48;100383.78;;;9.61;100.00
54978;BME280;40873;47.522;19.106;2023-02-19T08:23:15;100379.53;;;9.75;100.00
54978;BME280;40873;47.522;19.106;2023-02-19T08:25:43;100386.09;;;9.68;100.00
54978;BME280;40873;47.522;19.106;2023-02-19T08:28:10;100391.59;;;9.79;100.00
54978;BME280;40873;47.522;19.106;2023-02-19T08:30:39;100395.09;;;9.48;100.00
54978;BME280;40873;47.522;19.106;2023-02-19T08:33:07;100401.13;;;9.50;100.00
54978;BME280;40873;47.522;19.106;2023-02-19T08:35:34;100402.41;;;9.10;100.00
54978;BME280;40873;47.522;19.106;2023-02-19T08:38:04;100402.91;;;9.00;100.00
54978;BME280;40873;47.522;19.106;2023-02-19T08:40:32;100400.00;;;9.38;100.00
54978;BME280;40873;47.522;19.106;2023-02-19T08:43:07;100379.78;;;9.39;100.00
54978;BME280;40873;47.522;19.106;2023-02-19T08:45:36;100367.72;;;9.50;100.00
54978;BME280;40873;47.522;19.106;2023-02-19T08:48:03;100370.97;;;9.40;100.00
54978;BME280;40873;47.522;19.106;2023-02-19T08:50:31;100379.63;;;9.42;100.00
54978;BME280;40873;47.522;19.106;2023-02-19T08:52:59;100378.78;;;9.41;100.00
54978;BME280;40873;47.522;19.106;2023-02-19T08:55:26;100372.34;;;9.47;100.00
54978;BME280;40873;47.522;19.106;2023-02-19T08:57:53;100375.19;;;9.58;100.00
54978;BME280;40873;47.522;19.106;2023-02-19T09:00:21;100374.97;;;9.63;100.00
54978;BME280;40873;47.522;19.106;2023-02-19T09:02:48;100372.06;;;9.67;100.00
54978;BME280;40873;47.522;19.106;2023-02-19T09:05:16;100374.72;;;9.67;100.00
54978;BME280;40873;47.522;19.106;2023-02-19T09:07:43;100379.69;;;9.72;100.00
54978;BME280;40873;47.522;19.106;2023-02-19T09:10:11;100378.59;;;9.76;100.00
54978;BME280;40873;47.522;19.106;2023-02-19T09:12:39;100382.19;;;9.75;100.00
54978;BME280;40873;47.522;19.106;2023-02-19T09:15:09;100373.94;;;9.65;100.00
54978;BME280;40873;47.522;19.106;2023-02-19T09:17:38;100370.53;;;9.63;100.00
54978;BME280;40873;47.522;19.106;2023-02-19T09:20:06;100361.44;;;9.69;100.00
54978;BME280;40873;47.522;19.106;2023-02-19T09:22:33;100360.75;;;9.65;100.00
54978;BME280;40873;47.522;19.106;2023-02-19T09:25:00;100365.78;;;9.70;100.00
54978;BME280;40873;47.522;19.106;2023-02-19T09:27:27;100364.56;;;9.59;100.00
54978;BME280;40873;47.522;19.106;2023-02-19T09:29:57;100370.78;;;9.74;100.00
54978;BME280;40873;47.522;19.106;2023-02-19T09:32:24;100376.56;;;9.81;100.00
54978;BME280;40873;47.522;19.106;2023-02-19T09:34:51;100365.66;;;9.87;100.00
54978;BME280;40873;47.522;19.106;2023-02-19T09:37:18;100372.47;;;9.91;100.00
54978;BME280;40873;47.522;19.106;2023-02-19T09:39:45;100357.59;;;9.90;100.00
54978;BME280;40873;47.522;19.106;2023-02-19T09:42:14;100360.19;;;10.06;100.00
54978;BME280;40873;47.522;19.106;2023-02-19T09:44:45;100345.34;;;10.19;100.00
54978;BME280;40873;47.522;19.106;2023-02-19T09:47:33;100350.44;;;10.22;100.00
54978;BME280;40873;47.522;19.106;2023-02-19T09:50:07;100342.13;;;10.30;100.00
54978;BME280;40873;47.522;19.106;2023-02-19T09:57:54;100329.84;;;10.73;100.00
54978;BME280;40873;47.522;19.106;2023-02-19T10:00:28;100323.69;;;10.87;100.00
54978;BME280;40873;47.522;19.106;2023-02-19T10:05:28;100312.38;;;10.99;100.00
54978;BME280;40873;47.522;19.106;2023-02-19T10:07:56;100311.69;;;11.10;100.00
54978;BME280;40873;47.522;19.106;2023-02-19T10:10:31;100298.56;;;11.91;100.00
54978;BME280;40873;47.522;19.106;2023-02-19T10:13:18;100296.81;;;12.55;100.00
54978;BME280;40873;47.522;19.106;2023-02-19T10:15:49;100281.50;;;12.97;100.00
54978;BME280;40873;47.522;19.106;2023-02-19T10:18:21;100291.81;;;12.88;100.00
54978;BME280;40873;47.522;19.106;2023-02-19T10:20:50;100292.97;;;12.84;100.00
54978;BME280;40873;47.522;19.106;2023-02-19T10:23:18;100284.53;;;13.16;100.00
54978;BME280;40873;47.522;19.106;2023-02-19T10:25:52;100273.81;;;13.30;100.00
54978;BME280;40873;47.522;19.106;2023-02-19T10:28:22;100285.72;;;13.25;100.00
54978;BME280;40873;47.522;19.106;2023-02-19T10:30:53;100265.75;;;13.32;100.00
54978;BME280;40873;47.522;19.106;2023-02-19T10:33:21;100257.81;;;13.19;100.00
54978;BME280;40873;47.522;19.106;2023-02-19T10:38:36;100230.56;;;12.93;100.00
54978;BME280;40873;47.522;19.106;2023-02-19T10:41:07;100242.13;;;12.79;99.41
54978;BME280;40873;47.522;19.106;2023-02-19T10:43:41;100235.28;;;12.77;100.00
54978;BME280;40873;47.522;19.106;2023-02-19T10:46:19;100229.00;;;12.90;99.60
54978;BME280;40873;47.522;19.106;2023-02-19T10:48:58;100220.72;;;13.67;95.55
54978;BME280;40873;47.522;19.106;2023-02-19T10:51:34;100230.66;;;13.04;96.00
54978;BME280;40873;47.522;19.106;2023-02-19T10:56:33;100202.03;;;13.57;92.00
54978;BME280;40873;47.522;19.106;2023-02-19T10:59:20;100203.44;;;13.85;90.95
54978;BME280;40873;47.522;19.106;2023-02-19T11:02:07;100194.22;;;14.13;88.75
54978;BME280;40873;47.522;19.106;2023-02-19T11:04:41;100189.63;;;14.15;87.69
54978;BME280;40873;47.522;19.106;2023-02-19T11:07:27;100181.81;;;14.59;85.69
54978;BME280;40873;47.522;19.106;2023-02-19T11:09:55;100181.66;;;14.38;83.56
54978;BME280;40873;47.522;19.106;2023-02-19T11:12:25;100182.78;;;14.69;81.16
54978;BME280;40873;47.522;19.106;2023-02-19T11:14:53;100161.19;;;15.05;79.69
54978;BME280;40873;47.522;19.106;2023-02-19T11:17:25;100176.31;;;15.37;76.88
54978;BME280;40873;47.522;19.106;2023-02-19T11:19:56;100167.63;;;14.92;75.68
54978;BME280;40873;47.522;19.106;2023-02-19T11:22:38;100179.84;;;14.83;76.07
54978;BME280;40873;47.522;19.106;2023-02-19T11:28:06;100151.34;;;14.85;75.51
54978;BME280;40873;47.522;19.106;2023-02-19T11:30:37;100154.69;;;14.98;74.10
54978;BME280;40873;47.522;19.106;2023-02-19T11:35:56;100156.88;;;14.93;75.02
54978;BME280;40873;47.522;19.106;2023-02-19T11:38:24;100140.09;;;14.93;74.03
54978;BME280;40873;47.522;19.106;2023-02-19T11:41:14;100150.38;;;14.86;72.88
54978;BME280;40873;47.522;19.106;2023-02-19T11:46:46;100134.16;;;15.00;71.21
54978;BME280;40873;47.522;19.106;2023-02-19T11:49:37;100150.16;;;15.42;70.81
54978;BME280;40873;47.522;19.106;2023-02-19T11:55:17;100133.78;;;15.58;69.27
54978;BME280;40873;47.522;19.106;2023-02-19T11:57:57;100136.44;;;15.37;68.26
54978;BME280;40873;47.522;19.106;2023-02-19T12:00:29;100132.09;;;15.78;67.00
54978;BME280;40873;47.522;19.106;2023-02-19T12:16:56;100113.47;;;15.57;65.46
54978;BME280;40873;47.522;19.106;2023-02-19T12:33:13;100124.72;;;14.53;69.72
54978;BME280;40873;47.522;19.106;2023-02-19T12:38:42;100137.28;;;14.51;70.05
54978;BME280;40873;47.522;19.106;2023-02-19T12:44:00;100126.00;;;14.81;69.66
54978;BME280;40873;47.522;19.106;2023-02-19T12:46:43;100135.97;;;14.68;70.04
54978;BME280;40873;47.522;19.106;2023-02-19T12:49:35;100128.91;;;14.78;73.63
54978;BME280;40873;47.522;19.106;2023-02-19T12:52:09;100173.97;;;14.46;81.26
54978;BME280;40873;47.522;19.106;2023-02-19T12:54:40;100149.50;;;13.27;92.57
54978;BME280;40873;47.522;19.106;2023-02-19T13:00:17;100149.88;;;12.86;92.69
54978;BME280;40873;47.522;19.106;2023-02-19T13:02:49;100154.69;;;12.81;87.27
54978;BME280;40873;47.522;19.106;2023-02-19T13:05:26;100161.09;;;12.66;88.47
54978;BME280;40873;47.522;19.106;2023-02-19T13:10:52;100151.22;;;12.31;84.49
54978;BME280;40873;47.522;19.106;2023-02-19T13:14:02;100141.25;;;12.34;84.80
54978;BME280;40873;47.522;19.106;2023-02-19T13:16:33;100134.94;;;12.61;85.32
54978;BME280;40873;47.522;19.106;2023-02-19T13:19:04;100142.00;;;12.97;84.82
54978;BME280;40873;47.522;19.106;2023-02-19T13:21:33;100156.63;;;13.14;85.18
54978;BME280;40873;47.522;19.106;2023-02-19T13:24:25;100156.41;;;12.93;87.25
54978;BME280;40873;47.522;19.106;2023-02-19T13:37:37;100145.78;;;12.45;97.96
54978;BME280;40873;47.522;19.106;2023-02-19T13:40:35;100155.97;;;12.26;99.79
54978;BME280;40873;47.522;19.106;2023-02-19T13:43:05;100164.56;;;11.91;100.00
54978;BME280;40873;47.522;19.106;2023-02-19T13:45:39;100173.53;;;11.76;100.00
54978;BME280;40873;47.522;19.106;2023-02-19T14:33:21;100269.03;;;11.30;90.26
54978;BME280;40873;47.522;19.106;2023-02-19T14:35:53;100285.56;;;11.46;88.73
54978;BME280;40873;47.522;19.106;2023-02-19T14:38:35;100285.44;;;11.62;88.87
54978;BME280;40873;47.522;19.106;2023-02-19T14:41:05;100289.03;;;11.74;87.23
54978;BME280;40873;47.522;19.106;2023-02-19T14:43:33;100291.97;;;11.84;88.20
54978;BME280;40873;47.522;19.106;2023-02-19T14:48:49;100286.81;;;11.95;88.29
54978;BME280;40873;47.522;19.106;2023-02-19T14:52:02;100288.59;;;11.67;89.19
54978;BME280;40873;47.522;19.106;2023-02-19T14:57:19;100281.28;;;11.58;88.87
54978;BME280;40873;47.522;19.106;2023-02-19T15:02:49;100276.09;;;11.57;91.98
54978;BME280;40873;47.522;19.106;2023-02-19T15:05:20;100285.22;;;11.38;91.66
54978;BME280;40873;47.522;19.106;2023-02-19T15:07:50;100286.88;;;11.27;92.89
54978;BME280;40873;47.522;19.106;2023-02-19T15:10:18;100280.94;;;11.23;93.68
54978;BME280;40873;47.522;19.106;2023-02-19T15:12:54;100286.16;;;10.96;93.78
54978;BME280;40873;47.522;19.106;2023-02-19T15:15:30;100306.44;;;10.95;93.10
54978;BME280;40873;47.522;19.106;2023-02-19T15:18:00;100306.09;;;10.73;93.71
54978;BME280;40873;47.522;19.106;2023-02-19T15:20:35;100302.88;;;10.68;95.09
54978;BME280;40873;47.522;19.106;2023-02-19T15:23:05;100294.00;;;10.69;94.36
54978;BME280;40873;47.522;19.106;2023-02-19T15:25:34;100293.00;;;10.72;94.04
54978;BME280;40873;47.522;19.106;2023-02-19T15:33:26;100268.47;;;10.69;95.11
54978;BME280;40873;47.522;19.106;2023-02-19T15:35:55;100268.84;;;10.49;95.15
54978;BME280;40873;47.522;19.106;2023-02-19T15:38:23;100277.91;;;10.45;95.05
54978;BME280;40873;47.522;19.106;2023-02-19T15:40:51;100260.28;;;10.46;96.44